Independence of the Seas — C6WW4 — position and weather

sailwx.info

Track history (hours):
 
Tides and Currents Weather Stations Pressure Air Temp Water Temp Dewpoint Dewpoint Depression Visibility Wind Speed Wind Dir Waves Ship Positions

Independence of the Seas

Last reported at 2017-May-27 02:00 UTC. Time now 2017-May-27 02:19 UTC.
Position N 50°41' W 000°58'.

Length 339 m; draft 8.8 m.

Type: Passenger vessel. MMSI: 309374000.

Date/timePositionNaut miles runAvg speedWind from/ knotsBaromVisibWave heightAir tempDewpointWater temp
2017-May-27 02:00N 50°41' W 000°58'4 7.9
2017-May-27 01:29N 50°37' W 000°59'511.2
2017-May-27 01:00N 50°32' W 001°05'910.7
2017-May-27 00:11N 50°27' W 001°16'211.7
2017-May-27 00:00N 50°26' W 001°18'613.0
2017-May-26 23:30N 50°22' W 001°27'5315.1
2017-May-26 19:59N 49°54' W 002°37'816.0
2017-May-26 19:31N 49°52' W 002°49'1018.4
2017-May-26 18:57N 49°48' W 003°03'818.6
2017-May-26 18:31N 49°43' W 003°14'1018.8
2017-May-26 17:58N 49°38' W 003°28'65814.1
2017-May-24 19:18N 40°17' W 011°34'620.1
2017-May-24 19:00N 40°12' W 011°38'  
2017-May-22 05:00N 28°28' W 016°10'1010.1
2017-May-22 03:59N 28°25' W 015°58'610.7
2017-May-22 03:28N 28°29' W 015°53'511.2
2017-May-22 02:59N 28°33' W 015°49'611.7
2017-May-22 02:29N 28°37' W 015°45'510.7
2017-May-22 02:00N 28°38' W 015°39'611.1
2017-May-22 01:30N 28°36' W 015°33'510.8
2017-May-22 01:00N 28°34' W 015°28'510.9
2017-May-22 00:30N 28°32' W 015°22'610.9
2017-May-22 00:00N 28°31' W 015°16'511.0
2017-May-21 23:30N 28°29' W 015°10'611.4
2017-May-21 23:00N 28°27' W 015°04'611.9
2017-May-21 22:30N 28°26' W 014°57'611.5
2017-May-21 22:00N 28°23' W 014°51'510.7
2017-May-21 21:30N 28°18' W 014°51'511.0
2017-May-21 21:00N 28°13' W 014°53'610.9
2017-May-21 20:29N 28°07' W 014°55'510.3
2017-May-21 20:00N 28°04' W 014°59'611.3
2017-May-21 19:30N 28°05' W 015°06'611.2
2017-May-21 19:01N 28°06' W 015°12'611.2
2017-May-21 18:31N 28°06' W 015°18'511.0
2017-May-21 18:01N 28°07' W 015°24'2 3.1
2017-May-21 17:29N 28°08' W 015°25'0 0.0
2017-May-21 16:59N 28°08' W 015°25'0 0.0
2017-May-21 16:29N 28°08' W 015°25'0 0.0
2017-May-21 15:59N 28°08' W 015°25'0 0.0
2017-May-21 15:29N 28°08' W 015°25'0 0.0
2017-May-21 14:59N 28°08' W 015°25'0 0.0
2017-May-21 14:29N 28°08' W 015°25'0 0.0
2017-May-21 13:29N 28°08' W 015°25'0 0.0
2017-May-21 12:59N 28°08' W 015°25'0 0.0
2017-May-21 12:29N 28°08' W 015°25'0 0.0
2017-May-21 11:59N 28°08' W 015°25'0 0.0
2017-May-21 11:29N 28°08' W 015°25'0 0.0
2017-May-21 10:50N 28°08' W 015°25'0 0.0
2017-May-21 10:05N 28°08' W 015°25'0 0.0
2017-May-21 09:53N 28°08' W 015°25'0 0.0
2017-May-21 09:23N 28°08' W 015°25'0 0.0
2017-May-21 08:53N 28°08' W 015°25'0 0.0
2017-May-21 08:23N 28°08' W 015°25'0 0.0
2017-May-21 07:50N 28°08' W 015°25'0 1.1
2017-May-21 07:31N 28°08' W 015°25'2 4.7
2017-May-21 07:00N 28°07' W 015°23'611.8
2017-May-21 06:30N 28°06' W 015°16'611.6
2017-May-21 06:00N 28°05' W 015°10'611.9
2017-May-21 05:30N 28°03' W 015°03'611.6
2017-May-21 05:00N 27°60' W 014°58'612.3
2017-May-21 04:29N 27°54' W 015°00'510.9
2017-May-21 04:00N 27°49' W 015°01'611.8
2017-May-21 03:30N 27°46' W 014°55'103 7.2
2017-May-20 13:13N 28°58' W 013°32'60114.5
2017-May-18 19:51N 38°24' W 009°30'618.2
2017-May-18 19:30N 38°30' W 009°27'917.5
2017-May-18 19:00N 38°38' W 009°22'812.6
2017-May-18 18:23N 38°41' W 009°13'410.3
2017-May-18 18:00N 38°42' W 009°08'0 0.7
2017-May-18 17:28N 38°43' W 009°08'0 0.0
2017-May-18 16:52N 38°43' W 009°08'0 0.0
2017-May-18 16:28N 38°43' W 009°08'0 0.0
2017-May-18 15:58N 38°43' W 009°08'0 0.0
2017-May-18 15:28N 38°43' W 009°08'0 0.0
2017-May-18 14:58N 38°43' W 009°08'0 0.0
2017-May-18 13:58N 38°43' W 009°08'0 0.0
2017-May-18 13:28N 38°43' W 009°08'0 0.0
2017-May-18 12:58N 38°43' W 009°08'0 0.0
2017-May-18 12:28N 38°43' W 009°08'0 0.0
2017-May-18 11:58N 38°43' W 009°08'0 0.0
2017-May-18 11:28N 38°43' W 009°08'0 0.0
2017-May-18 10:58N 38°43' W 009°08'0 0.0
2017-May-18 10:28N 38°43' W 009°08'0 0.0
2017-May-18 10:00N 38°43' W 009°08'0 0.0
2017-May-18 09:30N 38°43' W 009°08'0 0.0
2017-May-18 09:00N 38°43' W 009°08'0 0.0
2017-May-18 08:30N 38°43' W 009°08'0 0.0
2017-May-18 08:00N 38°43' W 009°08'0 0.0
2017-May-18 07:30N 38°43' W 009°08'0 0.0
2017-May-18 07:00N 38°43' W 009°08'0 0.8
2017-May-18 06:30N 38°42' W 009°08'611.0
2017-May-18 05:58N 38°41' W 009°15'714.2
2017-May-18 05:30N 38°37' W 009°22'816.2
2017-May-18 05:00N 38°36' W 009°32'817.0
2017-May-18 04:30N 38°41' W 009°42'918.3
2017-May-18 04:00N 38°50' W 009°43'918.4
2017-May-18 03:30N 38°59' W 009°45'918.5
2017-May-18 03:00N 39°08' W 009°47'1018.9
2017-May-18 02:30N 39°17' W 009°50'  
Track history (hours):
 
Tides and Currents Weather Stations Pressure Air Temp Water Temp Dewpoint Dewpoint Depression Visibility Wind Speed Wind Dir Waves Ship Positions

Independence of the Seas

Last reported at 2017-May-27 02:00 UTC. Time now 2017-May-27 02:19 UTC.
Position N 50°41' W 000°58'.

Length 339 m; draft 8.8 m.

Type: Passenger vessel. MMSI: 309374000.

Date/timePositionNaut miles runAvg speedWind from/ knotsBaromVisibWave heightAir tempDewpointWater temp
2017-May-27 02:00N 50°41' W 000°58'4 7.9
2017-May-27 01:29N 50°37' W 000°59'511.2
2017-May-27 01:00N 50°32' W 001°05'910.7
2017-May-27 00:11N 50°27' W 001°16'211.7
2017-May-27 00:00N 50°26' W 001°18'613.0
2017-May-26 23:30N 50°22' W 001°27'5315.1
2017-May-26 19:59N 49°54' W 002°37'816.0
2017-May-26 19:31N 49°52' W 002°49'1018.4
2017-May-26 18:57N 49°48' W 003°03'818.6
2017-May-26 18:31N 49°43' W 003°14'1018.8
2017-May-26 17:58N 49°38' W 003°28'65814.1
2017-May-24 19:18N 40°17' W 011°34'620.1
2017-May-24 19:00N 40°12' W 011°38'  
2017-May-22 05:00N 28°28' W 016°10'1010.1
2017-May-22 03:59N 28°25' W 015°58'610.7
2017-May-22 03:28N 28°29' W 015°53'511.2
2017-May-22 02:59N 28°33' W 015°49'611.7
2017-May-22 02:29N 28°37' W 015°45'510.7
2017-May-22 02:00N 28°38' W 015°39'611.1
2017-May-22 01:30N 28°36' W 015°33'510.8
2017-May-22 01:00N 28°34' W 015°28'510.9
2017-May-22 00:30N 28°32' W 015°22'610.9
2017-May-22 00:00N 28°31' W 015°16'511.0
2017-May-21 23:30N 28°29' W 015°10'611.4
2017-May-21 23:00N 28°27' W 015°04'611.9
2017-May-21 22:30N 28°26' W 014°57'611.5
2017-May-21 22:00N 28°23' W 014°51'510.7
2017-May-21 21:30N 28°18' W 014°51'511.0
2017-May-21 21:00N 28°13' W 014°53'610.9
2017-May-21 20:29N 28°07' W 014°55'510.3
2017-May-21 20:00N 28°04' W 014°59'611.3
2017-May-21 19:30N 28°05' W 015°06'611.2
2017-May-21 19:01N 28°06' W 015°12'611.2
2017-May-21 18:31N 28°06' W 015°18'511.0
2017-May-21 18:01N 28°07' W 015°24'2 3.1
2017-May-21 17:29N 28°08' W 015°25'0 0.0
2017-May-21 16:59N 28°08' W 015°25'0 0.0
2017-May-21 16:29N 28°08' W 015°25'0 0.0
2017-May-21 15:59N 28°08' W 015°25'0 0.0
2017-May-21 15:29N 28°08' W 015°25'0 0.0
2017-May-21 14:59N 28°08' W 015°25'0 0.0
2017-May-21 14:29N 28°08' W 015°25'0 0.0
2017-May-21 13:29N 28°08' W 015°25'0 0.0
2017-May-21 12:59N 28°08' W 015°25'0 0.0
2017-May-21 12:29N 28°08' W 015°25'0 0.0
2017-May-21 11:59N 28°08' W 015°25'0 0.0
2017-May-21 11:29N 28°08' W 015°25'0 0.0
2017-May-21 10:50N 28°08' W 015°25'0 0.0
2017-May-21 10:05N 28°08' W 015°25'0 0.0
2017-May-21 09:53N 28°08' W 015°25'0 0.0
2017-May-21 09:23N 28°08' W 015°25'0 0.0
2017-May-21 08:53N 28°08' W 015°25'0 0.0
2017-May-21 08:23N 28°08' W 015°25'0 0.0
2017-May-21 07:50N 28°08' W 015°25'0 1.1
2017-May-21 07:31N 28°08' W 015°25'2 4.7
2017-May-21 07:00N 28°07' W 015°23'611.8
2017-May-21 06:30N 28°06' W 015°16'611.6
2017-May-21 06:00N 28°05' W 015°10'611.9
2017-May-21 05:30N 28°03' W 015°03'611.6
2017-May-21 05:00N 27°60' W 014°58'612.3
2017-May-21 04:29N 27°54' W 015°00'510.9
2017-May-21 04:00N 27°49' W 015°01'611.8
2017-May-21 03:30N 27°46' W 014°55'103 7.2
2017-May-20 13:13N 28°58' W 013°32'60114.5
2017-May-18 19:51N 38°24' W 009°30'618.2
2017-May-18 19:30N 38°30' W 009°27'917.5
2017-May-18 19:00N 38°38' W 009°22'812.6
2017-May-18 18:23N 38°41' W 009°13'410.3
2017-May-18 18:00N 38°42' W 009°08'0 0.7
2017-May-18 17:28N 38°43' W 009°08'0 0.0
2017-May-18 16:52N 38°43' W 009°08'0 0.0
2017-May-18 16:28N 38°43' W 009°08'0 0.0
2017-May-18 15:58N 38°43' W 009°08'0 0.0
2017-May-18 15:28N 38°43' W 009°08'0 0.0
2017-May-18 14:58N 38°43' W 009°08'0 0.0
2017-May-18 13:58N 38°43' W 009°08'0 0.0
2017-May-18 13:28N 38°43' W 009°08'0 0.0
2017-May-18 12:58N 38°43' W 009°08'0 0.0
2017-May-18 12:28N 38°43' W 009°08'0 0.0
2017-May-18 11:58N 38°43' W 009°08'0 0.0
2017-May-18 11:28N 38°43' W 009°08'0 0.0
2017-May-18 10:58N 38°43' W 009°08'0 0.0
2017-May-18 10:28N 38°43' W 009°08'0 0.0
2017-May-18 10:00N 38°43' W 009°08'0 0.0
2017-May-18 09:30N 38°43' W 009°08'0 0.0
2017-May-18 09:00N 38°43' W 009°08'0 0.0
2017-May-18 08:30N 38°43' W 009°08'0 0.0
2017-May-18 08:00N 38°43' W 009°08'0 0.0
2017-May-18 07:30N 38°43' W 009°08'0 0.0
2017-May-18 07:00N 38°43' W 009°08'0 0.8
2017-May-18 06:30N 38°42' W 009°08'611.0
2017-May-18 05:58N 38°41' W 009°15'714.2
2017-May-18 05:30N 38°37' W 009°22'816.2
2017-May-18 05:00N 38°36' W 009°32'817.0
2017-May-18 04:30N 38°41' W 009°42'918.3
2017-May-18 04:00N 38°50' W 009°43'918.4
2017-May-18 03:30N 38°59' W 009°45'918.5
2017-May-18 03:00N 39°08' W 009°47'1018.9
2017-May-18 02:30N 39°17' W 009°50'  

Dump ship's entire track history